createdAt,value
2019-03-04T00:01:35.106Z,12.60
2019-03-04T00:04:03.194Z,12.70
2019-03-04T00:06:31.207Z,12.80
2019-03-04T00:08:59.362Z,12.80
2019-03-04T00:11:27.538Z,12.90
2019-03-04T00:13:55.650Z,12.90
2019-03-04T00:16:23.962Z,13.00
2019-03-04T00:18:52.064Z,13.00
2019-03-04T00:21:20.588Z,13.00
2019-03-04T00:23:48.725Z,13.00
2019-03-04T00:26:17.794Z,13.00
2019-03-04T00:28:46.102Z,13.10
2019-03-04T00:31:14.287Z,13.10
2019-03-04T00:33:42.437Z,13.20
2019-03-04T00:36:11.414Z,13.20
2019-03-04T00:38:39.480Z,13.30
2019-03-04T00:41:07.616Z,13.40
2019-03-04T00:43:35.578Z,13.50
2019-03-04T00:46:03.820Z,13.50
2019-03-04T00:48:31.933Z,13.40
2019-03-04T00:51:00.416Z,13.50
2019-03-04T00:53:28.573Z,13.40
2019-03-04T00:55:56.780Z,13.10
2019-03-04T00:58:25.203Z,13.10
2019-03-04T01:00:53.327Z,13.20
2019-03-04T01:03:21.759Z,13.30
2019-03-04T01:05:50.272Z,13.30
2019-03-04T01:08:19.554Z,13.20
2019-03-04T01:10:47.953Z,13.20
2019-03-04T01:13:15.964Z,13.30
2019-03-04T01:15:44.189Z,13.20
2019-03-04T01:18:12.244Z,13.10
2019-03-04T01:20:40.312Z,13.20
2019-03-04T01:23:08.645Z,13.10
2019-03-04T01:25:36.921Z,13.30
2019-03-04T01:28:04.965Z,13.40
2019-03-04T01:30:33.714Z,13.30
2019-03-04T01:33:01.807Z,13.10
2019-03-04T01:35:30.178Z,13.10
2019-03-04T01:37:58.269Z,13.10
2019-03-04T01:40:26.773Z,13.10
2019-03-04T01:42:55.034Z,13.10
2019-03-04T01:45:23.409Z,13.00
2019-03-04T01:47:51.752Z,12.90
2019-03-04T01:50:20.397Z,12.90
2019-03-04T01:52:49.232Z,12.80
2019-03-04T01:55:17.840Z,12.80
2019-03-04T01:57:45.806Z,12.70
2019-03-04T02:00:16.230Z,12.70
2019-03-04T02:02:44.485Z,12.70
2019-03-04T02:05:13.402Z,12.70
2019-03-04T02:07:41.648Z,12.70
2019-03-04T02:10:13.140Z,12.60
2019-03-04T02:12:41.290Z,12.60
2019-03-04T02:15:12.030Z,12.60
2019-03-04T02:17:40.072Z,12.60
2019-03-04T02:20:09.972Z,12.60
2019-03-04T02:22:37.950Z,12.70
2019-03-04T02:25:08.973Z,12.60
2019-03-04T02:27:37.028Z,12.70
2019-03-04T02:30:11.994Z,12.80
2019-03-04T02:32:39.963Z,12.70
2019-03-04T02:35:08.136Z,12.60
2019-03-04T02:37:36.388Z,12.70
2019-03-04T02:40:05.495Z,12.60
2019-03-04T02:42:34.869Z,12.50
2019-03-04T02:45:03.454Z,12.50
2019-03-04T02:47:31.525Z,12.20
2019-03-04T02:50:02.580Z,12.00
2019-03-04T02:52:30.669Z,11.80
2019-03-04T02:54:59.156Z,11.70
2019-03-04T02:57:27.258Z,11.80
2019-03-04T02:59:55.299Z,11.70
2019-03-04T03:02:23.909Z,11.80
2019-03-04T03:04:51.952Z,11.90
2019-03-04T03:07:20.080Z,11.70
2019-03-04T03:09:48.166Z,11.50
2019-03-04T03:12:16.662Z,11.60
2019-03-04T03:14:44.779Z,11.70
2019-03-04T03:17:13.541Z,11.60
2019-03-04T03:19:41.632Z,11.50
2019-03-04T03:22:09.646Z,11.40
2019-03-04T03:24:37.670Z,11.50
2019-03-04T03:27:05.832Z,11.40
2019-03-04T03:29:35.133Z,11.30
2019-03-04T03:32:03.686Z,11.20
2019-03-04T03:34:31.800Z,11.30
2019-03-04T03:36:59.902Z,11.00
2019-03-04T03:39:28.320Z,11.20
2019-03-04T03:41:56.390Z,11.10
2019-03-04T03:44:24.581Z,11.20
2019-03-04T03:46:52.871Z,11.40
2019-03-04T03:49:22.776Z,11.50
2019-03-04T03:51:50.982Z,11.40
2019-03-04T03:54:19.162Z,11.80
2019-03-04T03:56:47.382Z,11.70
2019-03-04T03:59:15.558Z,11.50
2019-03-04T04:01:44.242Z,11.70
2019-03-04T04:04:12.201Z,11.80
2019-03-04T04:06:40.358Z,11.60
2019-03-04T04:09:08.672Z,11.50
2019-03-04T04:11:36.999Z,11.60
2019-03-04T04:14:05.696Z,11.60
2019-03-04T04:16:34.011Z,11.60
2019-03-04T04:19:05.073Z,11.50
2019-03-04T04:21:33.041Z,11.40
2019-03-04T04:24:01.117Z,11.20
2019-03-04T04:26:29.201Z,11.30
2019-03-04T04:29:16.860Z,11.40
2019-03-04T04:31:45.066Z,11.30
2019-03-04T04:34:13.155Z,11.40
2019-03-04T04:36:41.165Z,11.40
2019-03-04T04:39:09.398Z,11.40
2019-03-04T04:41:37.810Z,11.60
2019-03-04T04:44:06.345Z,11.80
2019-03-04T04:46:55.036Z,11.80
2019-03-04T04:49:29.566Z,12.00
2019-03-04T04:51:57.622Z,12.00
2019-03-04T04:54:25.644Z,12.00
2019-03-04T04:56:53.901Z,11.90
2019-03-04T04:59:22.092Z,12.00
2019-03-04T05:01:50.317Z,12.10
2019-03-04T05:04:18.821Z,12.10
2019-03-04T05:06:46.984Z,12.10
2019-03-04T05:09:15.119Z,12.10
2019-03-04T05:11:43.039Z,12.20
2019-03-04T05:14:11.380Z,12.10
2019-03-04T05:16:39.452Z,12.10
2019-03-04T05:19:07.740Z,12.10
2019-03-04T05:21:37.551Z,12.10
2019-03-04T05:24:05.511Z,12.20
2019-03-04T05:26:33.546Z,12.20
2019-03-04T05:29:02.697Z,12.30
2019-03-04T05:31:30.741Z,12.30
2019-03-04T05:33:59.201Z,12.20
2019-03-04T05:36:27.310Z,12.10
2019-03-04T05:38:55.357Z,12.10
2019-03-04T05:41:23.561Z,11.90
2019-03-04T05:43:52.035Z,11.80
2019-03-04T05:46:20.099Z,11.60
2019-03-04T05:48:48.287Z,11.30
2019-03-04T05:51:16.325Z,11.30
2019-03-04T05:53:44.905Z,11.20
2019-03-04T05:56:13.215Z,11.00
2019-03-04T05:58:41.393Z,11.10
2019-03-04T06:01:22.221Z,10.90
2019-03-04T06:03:53.744Z,11.00
2019-03-04T06:06:39.906Z,11.10
2019-03-04T06:09:10.326Z,11.10
2019-03-04T06:11:38.834Z,11.00
2019-03-04T06:14:07.317Z,11.30
2019-03-04T06:16:35.632Z,11.40
2019-03-04T06:19:04.294Z,11.60
2019-03-04T06:21:32.827Z,11.80
2019-03-04T06:24:01.131Z,12.20
2019-03-04T06:26:29.992Z,12.30
2019-03-04T06:28:58.324Z,12.50
2019-03-04T06:31:26.356Z,12.40
2019-03-04T06:33:55.478Z,12.50
2019-03-04T06:36:23.593Z,12.80
2019-03-04T06:38:51.750Z,12.80
2019-03-04T06:41:19.909Z,12.70
2019-03-04T06:43:48.410Z,12.90
2019-03-04T06:46:22.551Z,12.90
2019-03-04T06:48:50.899Z,12.80
2019-03-04T06:51:39.034Z,12.80
2019-03-04T06:55:05.458Z,12.80
2019-03-04T06:57:41.487Z,12.90
2019-03-04T07:01:00.855Z,12.70
2019-03-04T07:03:38.911Z,12.70
2019-03-04T07:06:07.330Z,12.70
2019-03-04T07:09:12.670Z,12.60
2019-03-04T07:11:53.653Z,12.50
2019-03-04T07:14:21.783Z,12.60
2019-03-04T07:16:51.471Z,12.50
2019-03-04T07:19:21.601Z,12.60
2019-03-04T07:21:50.139Z,12.60
2019-03-04T07:24:18.645Z,12.80
2019-03-04T07:26:46.615Z,12.90
2019-03-04T07:29:15.162Z,13.10
2019-03-04T07:31:43.441Z,13.10
2019-03-04T07:34:11.985Z,13.30
2019-03-04T07:36:40.174Z,13.50
2019-03-04T07:39:18.787Z,13.60
2019-03-04T07:41:52.444Z,13.70
2019-03-04T07:44:20.589Z,13.70
2019-03-04T07:46:48.966Z,13.70
2019-03-04T07:49:17.121Z,13.70
2019-03-04T07:51:45.300Z,13.60
2019-03-04T07:54:13.793Z,13.60
2019-03-04T07:56:42.005Z,13.60
2019-03-04T07:59:10.040Z,13.50
2019-03-04T08:01:38.658Z,13.50
2019-03-04T08:04:06.746Z,13.50
2019-03-04T08:06:34.769Z,13.50
2019-03-04T08:10:05.757Z,13.50
2019-03-04T08:12:56.446Z,13.40
2019-03-04T08:15:27.843Z,13.50
2019-03-04T08:17:56.032Z,13.50
2019-03-04T08:20:24.199Z,13.50
2019-03-04T08:22:52.701Z,13.60
2019-03-04T08:25:22.103Z,13.60
2019-03-04T08:27:50.725Z,13.60
2019-03-04T08:30:23.882Z,13.50
2019-03-04T08:32:53.485Z,13.50
2019-03-04T08:35:22.395Z,13.50
2019-03-04T08:37:50.465Z,13.50
2019-03-04T08:40:18.502Z,13.40
2019-03-04T08:42:46.484Z,13.30
2019-03-04T08:45:17.780Z,13.30
2019-03-04T08:47:46.051Z,13.30
2019-03-04T08:50:14.874Z,13.30
2019-03-04T08:52:42.904Z,13.30
2019-03-04T08:55:13.119Z,13.30
2019-03-04T08:57:41.260Z,13.20
2019-03-04T09:00:14.115Z,13.20
2019-03-04T09:02:42.037Z,13.20
2019-03-04T09:05:10.468Z,13.20
2019-03-04T09:07:38.625Z,13.20
2019-03-04T09:10:14.841Z,13.20
2019-03-04T09:12:42.980Z,13.10
2019-03-04T09:15:11.366Z,13.10
2019-03-04T09:17:39.296Z,13.10
2019-03-04T09:20:08.486Z,13.20
2019-03-04T09:22:36.926Z,13.20
2019-03-04T09:25:09.739Z,13.20
2019-03-04T09:27:38.018Z,13.10
2019-03-04T09:30:07.672Z,13.00
2019-03-04T09:32:35.963Z,13.10
2019-03-04T09:35:04.836Z,13.00
2019-03-04T09:37:33.096Z,13.00
2019-03-04T09:40:01.191Z,13.00
2019-03-04T09:42:30.900Z,13.00
2019-03-04T09:44:58.939Z,13.10
2019-03-04T09:47:27.271Z,13.10
2019-03-04T09:49:55.633Z,13.10
2019-03-04T09:52:24.071Z,13.00
2019-03-04T09:54:52.100Z,13.10
2019-03-04T09:57:20.373Z,13.20
2019-03-04T09:59:48.728Z,13.20
2019-03-04T10:02:42.668Z,13.30
2019-03-04T10:05:54.801Z,13.40
2019-03-04T10:09:08.766Z,13.80
2019-03-04T10:12:31.547Z,14.00
2019-03-04T10:15:41.715Z,14.50
2019-03-04T10:18:40.473Z,14.60
2019-03-04T10:21:29.568Z,14.30
2019-03-04T10:24:55.385Z,14.20
2019-03-04T10:28:03.531Z,14.10
2019-03-04T10:31:41.056Z,13.90
2019-03-04T10:35:20.103Z,13.70
2019-03-04T10:38:26.222Z,13.50
2019-03-04T10:41:33.283Z,13.40
2019-03-04T10:44:37.891Z,13.20
2019-03-04T10:47:05.040Z,13.20
2019-03-04T10:49:35.174Z,13.00
2019-03-04T10:52:03.849Z,12.90
2019-03-04T10:54:32.111Z,12.90
2019-03-04T10:57:01.114Z,12.90
2019-03-04T10:59:29.100Z,12.90
2019-03-04T11:01:57.468Z,13.00
2019-03-04T11:04:25.641Z,13.20
2019-03-04T11:06:54.957Z,13.30
2019-03-04T11:09:23.299Z,13.50
2019-03-04T11:11:52.643Z,13.50
2019-03-04T11:14:20.866Z,13.50
2019-03-04T11:16:48.885Z,13.20
2019-03-04T11:19:17.131Z,12.80
2019-03-04T11:21:45.097Z,12.50
2019-03-04T11:24:13.434Z,12.40
2019-03-04T11:26:41.800Z,12.50
2019-03-04T11:29:13.186Z,12.50
2019-03-04T11:31:41.712Z,12.50
2019-03-04T11:34:09.797Z,12.40
2019-03-04T11:36:37.925Z,12.30
2019-03-04T11:39:45.842Z,12.30
2019-03-04T11:42:13.925Z,12.50
2019-03-04T11:44:42.224Z,12.90
2019-03-04T11:47:10.434Z,13.40
2019-03-04T11:49:38.427Z,13.60
2019-03-04T11:52:06.567Z,13.90
2019-03-04T11:54:35.293Z,13.90
2019-03-04T11:57:03.563Z,13.50
2019-03-04T11:59:31.743Z,13.20
2019-03-04T12:02:00.102Z,13.40
2019-03-04T12:04:28.294Z,13.30
2019-03-04T12:06:56.593Z,13.40
2019-03-04T12:09:24.693Z,13.30
2019-03-04T12:11:52.861Z,13.50
2019-03-04T12:14:20.817Z,13.30
2019-03-04T12:16:48.813Z,13.20
2019-03-04T12:19:17.334Z,13.30
2019-03-04T12:21:45.419Z,13.40
2019-03-04T12:24:13.783Z,13.20
2019-03-04T12:26:42.194Z,13.50
2019-03-04T12:29:10.143Z,13.60
2019-03-04T12:31:58.143Z,13.80
2019-03-04T12:34:26.363Z,13.80
2019-03-04T12:36:54.428Z,13.90
2019-03-04T12:39:22.930Z,14.00
2019-03-04T12:41:50.885Z,14.10
2019-03-04T12:44:18.944Z,14.00
2019-03-04T12:46:47.160Z,13.90
2019-03-04T12:49:15.408Z,13.70
2019-03-04T12:51:43.460Z,13.70
2019-03-04T12:54:11.826Z,13.70
2019-03-04T12:56:40.191Z,13.60
2019-03-04T12:59:08.494Z,13.60
2019-03-04T13:01:36.642Z,13.40
2019-03-04T13:04:05.471Z,13.30
2019-03-04T13:06:33.675Z,13.20
2019-03-04T13:09:02.141Z,13.20
2019-03-04T13:11:30.124Z,12.80
2019-03-04T13:13:58.759Z,12.60
2019-03-04T13:16:26.754Z,12.50
2019-03-04T13:18:54.746Z,12.40
2019-03-04T13:21:22.783Z,12.50
2019-03-04T13:23:51.276Z,12.50
2019-03-04T13:26:19.341Z,12.30
2019-03-04T13:28:47.915Z,12.10
2019-03-04T13:31:16.248Z,11.80
2019-03-04T13:33:44.346Z,11.70
2019-03-04T13:36:12.345Z,11.80
2019-03-04T13:38:40.625Z,11.80
2019-03-04T13:41:08.803Z,11.50
2019-03-04T13:43:36.830Z,11.50
2019-03-04T13:46:05.331Z,11.90
2019-03-04T13:48:33.597Z,12.10
2019-03-04T13:51:02.040Z,12.30
2019-03-04T13:53:30.184Z,12.30
2019-03-04T13:55:58.799Z,12.30
2019-03-04T13:58:26.871Z,12.20
2019-03-04T14:00:54.913Z,12.30
2019-03-04T14:03:22.950Z,12.30
2019-03-04T14:05:51.182Z,12.30
2019-03-04T14:08:19.921Z,12.40
2019-03-04T14:11:07.708Z,12.40
2019-03-04T14:13:35.999Z,12.40
2019-03-04T14:16:04.390Z,12.40
2019-03-04T14:18:32.994Z,12.50
2019-03-04T14:21:01.279Z,12.40
2019-03-04T14:23:29.670Z,12.30
2019-03-04T14:25:57.975Z,12.20
2019-03-04T14:28:28.233Z,12.20
2019-03-04T14:30:56.566Z,12.20
2019-03-04T14:33:24.716Z,12.10
2019-03-04T14:35:52.776Z,12.00
2019-03-04T14:38:21.001Z,11.80
2019-03-04T14:40:49.466Z,11.40
2019-03-04T14:43:17.601Z,11.20
2019-03-04T14:45:46.031Z,11.00
2019-03-04T14:48:14.325Z,10.80
2019-03-04T14:50:42.645Z,10.60
2019-03-04T14:53:10.752Z,10.20
2019-03-04T14:55:38.809Z,10.00
2019-03-04T14:58:06.768Z,9.80
2019-03-04T15:00:37.537Z,9.60
2019-03-04T15:03:06.395Z,9.40
2019-03-04T15:05:34.623Z,9.10
2019-03-04T15:08:02.916Z,8.90
2019-03-04T15:10:31.266Z,8.80
2019-03-04T15:12:59.832Z,8.80
2019-03-04T15:15:28.039Z,9.00
2019-03-04T15:17:57.405Z,9.10
2019-03-04T15:20:26.069Z,9.30
2019-03-04T15:22:54.674Z,9.30
2019-03-04T15:25:26.960Z,9.30
2019-03-04T15:28:14.956Z,9.30
2019-03-04T15:30:44.816Z,9.30
2019-03-04T15:33:18.205Z,9.30
2019-03-04T15:35:43.525Z,9.30
2019-03-04T15:38:11.693Z,9.30
2019-03-04T15:40:39.935Z,9.30
2019-03-04T15:43:08.812Z,9.30
2019-03-04T15:45:38.553Z,9.40
2019-03-04T15:48:06.964Z,9.50
2019-03-04T15:50:35.141Z,9.40
2019-03-04T15:53:03.466Z,9.50
2019-03-04T15:55:31.651Z,9.50
2019-03-04T15:57:59.757Z,9.50
2019-03-04T16:00:28.129Z,9.50
2019-03-04T16:02:56.466Z,9.50
2019-03-04T16:05:24.628Z,9.50
2019-03-04T16:07:53.116Z,9.60
2019-03-04T16:10:22.735Z,9.50
2019-03-04T16:12:50.937Z,9.50
2019-03-04T16:15:19.325Z,9.50
2019-03-04T16:17:47.502Z,9.40
2019-03-04T16:20:16.559Z,9.40
2019-03-04T16:22:46.007Z,9.50
2019-03-04T16:25:16.039Z,9.50
2019-03-04T16:27:44.199Z,9.30
2019-03-04T16:30:15.960Z,9.40
2019-03-04T16:32:44.267Z,9.30
2019-03-04T16:35:12.782Z,9.30
2019-03-04T16:37:40.921Z,9.20
2019-03-04T16:40:12.989Z,9.20
2019-03-04T16:42:41.331Z,9.30
2019-03-04T16:45:12.616Z,9.30
2019-03-04T16:47:40.990Z,9.20
2019-03-04T16:50:12.358Z,9.30
2019-03-04T16:52:40.810Z,9.30
2019-03-04T16:55:11.825Z,9.20
2019-03-04T16:57:39.887Z,9.20
2019-03-04T17:00:11.737Z,9.00
2019-03-04T17:02:40.056Z,8.90
2019-03-04T17:05:11.762Z,8.80
2019-03-04T17:07:39.854Z,8.80
2019-03-04T17:10:10.233Z,8.80
2019-03-04T17:12:38.404Z,8.60
2019-03-04T17:15:08.547Z,8.60
2019-03-04T17:17:37.060Z,8.60
2019-03-04T17:20:07.911Z,8.60
2019-03-04T17:22:36.163Z,8.60
2019-03-04T17:25:05.191Z,8.50
2019-03-04T17:27:33.215Z,8.50
2019-03-04T17:30:01.368Z,8.50
2019-03-04T17:32:29.876Z,8.50
2019-03-04T17:34:58.411Z,8.50
2019-03-04T17:37:26.527Z,8.40
2019-03-04T17:39:54.760Z,8.50
2019-03-04T17:42:23.249Z,8.50
2019-03-04T17:44:51.274Z,8.50
2019-03-04T17:47:19.362Z,8.60
2019-03-04T17:49:47.852Z,8.50
2019-03-04T17:52:16.545Z,8.40
2019-03-04T17:54:46.055Z,8.30
2019-03-04T17:57:16.293Z,8.50
2019-03-04T17:59:44.437Z,8.30
2019-03-04T18:02:12.621Z,8.30
2019-03-04T18:04:41.003Z,8.20
2019-03-04T18:07:10.194Z,8.30
2019-03-04T18:09:38.414Z,8.30
2019-03-04T18:12:06.816Z,8.20
2019-03-04T18:14:35.484Z,8.20
2019-03-04T18:17:03.731Z,8.20
2019-03-04T18:19:32.467Z,8.10
2019-03-04T18:22:00.886Z,8.20
2019-03-04T18:24:29.517Z,8.20
2019-03-04T18:27:22.364Z,8.10
2019-03-04T18:30:49.779Z,8.10
2019-03-04T18:34:32.624Z,8.00
2019-03-04T18:37:56.806Z,8.20
2019-03-04T18:40:53.188Z,8.10
2019-03-04T18:44:13.474Z,8.10
2019-03-04T18:47:54.412Z,8.00
2019-03-04T18:50:23.242Z,8.20
2019-03-04T18:52:51.736Z,8.20
2019-03-04T18:55:20.099Z,8.20
2019-03-04T18:57:48.719Z,8.20
2019-03-04T19:00:20.531Z,8.20
2019-03-04T19:02:49.145Z,8.20
2019-03-04T19:05:17.568Z,8.30
2019-03-04T19:07:48.204Z,8.30
2019-03-04T19:10:16.674Z,8.20
2019-03-04T19:12:45.258Z,8.30
2019-03-04T19:15:13.844Z,8.30
2019-03-04T19:17:42.771Z,8.20
2019-03-04T19:20:12.631Z,8.20
2019-03-04T19:22:41.582Z,8.20
2019-03-04T19:25:10.660Z,8.20
2019-03-04T19:27:42.223Z,8.10
2019-03-04T19:30:11.199Z,8.10
2019-03-04T19:32:39.485Z,8.00
2019-03-04T19:35:08.333Z,7.90
2019-03-04T19:37:36.855Z,7.90
2019-03-04T19:40:06.419Z,7.80
2019-03-04T19:42:34.735Z,7.80
2019-03-04T19:45:03.170Z,7.80
2019-03-04T19:47:41.915Z,7.80
2019-03-04T19:50:12.267Z,7.80
2019-03-04T19:52:43.455Z,7.90
2019-03-04T19:55:19.098Z,7.80
2019-03-04T19:57:51.991Z,7.60
2019-03-04T20:00:22.075Z,7.60
2019-03-04T20:02:51.272Z,7.70
2019-03-04T20:05:22.695Z,7.60
2019-03-04T20:07:53.426Z,7.70
2019-03-04T20:10:24.181Z,7.60
2019-03-04T20:12:54.074Z,7.60
2019-03-04T20:15:25.875Z,7.50
2019-03-04T20:17:56.980Z,7.60
2019-03-04T20:20:25.626Z,7.60
2019-03-04T20:22:56.179Z,7.50
2019-03-04T20:25:25.820Z,7.60
2019-03-04T20:27:54.555Z,7.60
2019-03-04T20:30:25.644Z,7.60
2019-03-04T20:32:54.759Z,7.70
2019-03-04T20:35:23.284Z,7.60
2019-03-04T20:37:53.338Z,7.60
2019-03-04T20:40:21.433Z,7.60
2019-03-04T20:42:50.179Z,7.50
2019-03-04T20:45:23.385Z,7.50
2019-03-04T20:47:51.722Z,7.50
2019-03-04T20:50:19.823Z,7.60
2019-03-04T20:52:48.016Z,7.60
2019-03-04T20:55:17.281Z,7.50
2019-03-04T20:57:45.225Z,7.60
2019-03-04T21:00:26.667Z,7.60
2019-03-04T21:02:55.203Z,7.60
2019-03-04T21:05:25.720Z,7.70
2019-03-04T21:07:53.750Z,7.70
2019-03-04T21:10:22.146Z,7.70
2019-03-04T21:12:51.759Z,7.60
2019-03-04T21:15:20.449Z,7.70
2019-03-04T21:17:49.025Z,7.80
2019-03-04T21:20:17.330Z,7.70
2019-03-04T21:22:46.129Z,7.70
2019-03-04T21:25:44.037Z,7.70
2019-03-04T21:28:24.652Z,7.70
2019-03-04T21:31:35.943Z,7.80
2019-03-04T21:35:08.513Z,7.80
2019-03-04T21:37:41.952Z,7.70
2019-03-04T21:40:19.242Z,7.80
2019-03-04T21:43:16.219Z,7.80
2019-03-04T21:46:55.343Z,7.60
2019-03-04T21:49:25.476Z,7.60
2019-03-04T21:52:20.543Z,7.50
2019-03-04T21:54:49.866Z,7.40
2019-03-04T21:57:50.070Z,7.30
2019-03-04T22:00:25.282Z,7.30
2019-03-04T22:03:10.652Z,7.30
2019-03-04T22:05:49.478Z,7.30
2019-03-04T22:08:09.761Z,7.30
2019-03-04T22:10:37.794Z,7.20
2019-03-04T22:13:05.905Z,7.20
2019-03-04T22:15:34.118Z,7.20
2019-03-04T22:18:02.429Z,7.30
2019-03-04T22:20:30.817Z,7.30
2019-03-04T22:22:58.958Z,7.30
2019-03-04T22:25:27.857Z,7.30
2019-03-04T22:27:55.832Z,7.40
2019-03-04T22:30:23.975Z,7.30
2019-03-04T22:32:52.275Z,7.30
2019-03-04T22:35:21.175Z,7.40
2019-03-04T22:37:49.438Z,7.40
2019-03-04T22:40:19.408Z,7.40
2019-03-04T22:42:47.517Z,7.50
2019-03-04T22:45:17.989Z,7.40
2019-03-04T22:47:47.738Z,7.40
2019-03-04T22:50:17.079Z,7.40
2019-03-04T22:52:45.359Z,7.40
2019-03-04T22:55:21.113Z,7.50
2019-03-04T22:57:49.100Z,7.40
2019-03-04T23:01:18.940Z,7.40
2019-03-04T23:03:47.702Z,7.50
2019-03-04T23:06:21.629Z,7.60
2019-03-04T23:08:49.843Z,7.50
2019-03-04T23:11:22.943Z,7.50
2019-03-04T23:14:03.795Z,7.60
2019-03-04T23:16:33.416Z,7.50
2019-03-04T23:19:01.909Z,7.50
2019-03-04T23:21:30.550Z,7.50
2019-03-04T23:23:58.758Z,7.50
2019-03-04T23:26:27.561Z,7.60
2019-03-04T23:28:55.709Z,7.60
2019-03-04T23:31:23.836Z,7.70
2019-03-04T23:33:51.763Z,7.70
2019-03-04T23:36:20.096Z,7.70
2019-03-04T23:38:48.452Z,7.70
2019-03-04T23:41:16.418Z,7.70
2019-03-04T23:43:44.344Z,7.70
2019-03-04T23:46:12.381Z,7.70
2019-03-04T23:48:40.268Z,7.70
2019-03-04T23:51:10.131Z,7.70
2019-03-04T23:53:38.034Z,7.60
2019-03-04T23:56:06.116Z,7.70
2019-03-04T23:58:34.776Z,7.70
